sensor_id;sensor_type;location;lat;lon;timestamp;pressure;altitude;pressure_sealevel;temperature;humidity
59315;BME280;46521;50.160;20.802;2023-04-07T00:11:30;99521.17;;;-0.37;80.58
59315;BME280;46521;50.160;20.802;2023-04-07T00:21:31;99516.90;;;-0.38;80.59
59315;BME280;46521;50.160;20.802;2023-04-07T00:31:33;99523.57;;;-0.34;80.53
59315;BME280;46521;50.160;20.802;2023-04-07T00:41:34;99522.64;;;-0.33;80.61
59315;BME280;46521;50.160;20.802;2023-04-07T00:51:36;99501.63;;;-0.30;80.59
59315;BME280;46521;50.160;20.802;2023-04-07T01:01:46;99493.92;;;-0.31;80.44
59315;BME280;46521;50.160;20.802;2023-04-07T01:12:01;99483.53;;;-0.31;80.87
59315;BME280;46521;50.160;20.802;2023-04-07T01:22:10;99476.80;;;-0.34;80.98
59315;BME280;46521;50.160;20.802;2023-04-07T01:32:13;99488.86;;;-0.33;81.12
59315;BME280;46521;50.160;20.802;2023-04-07T01:42:18;99481.69;;;-0.29;81.00
59315;BME280;46521;50.160;20.802;2023-04-07T01:52:20;99472.94;;;-0.28;80.95
59315;BME280;46521;50.160;20.802;2023-04-07T02:02:22;99456.52;;;-0.29;81.14
59315;BME280;46521;50.160;20.802;2023-04-07T02:12:25;99459.22;;;-0.30;81.03
59315;BME280;46521;50.160;20.802;2023-04-07T02:22:29;99460.28;;;-0.33;81.17
59315;BME280;46521;50.160;20.802;2023-04-07T02:32:32;99473.69;;;-0.26;81.55
59315;BME280;46521;50.160;20.802;2023-04-07T02:42:33;99447.70;;;-0.26;81.34
59315;BME280;46521;50.160;20.802;2023-04-07T02:52:36;99453.71;;;-0.26;81.65
59315;BME280;46521;50.160;20.802;2023-04-07T03:02:37;99449.44;;;-0.27;81.43
59315;BME280;46521;50.160;20.802;2023-04-07T03:12:39;99455.39;;;-0.25;81.76
59315;BME280;46521;50.160;20.802;2023-04-07T03:22:40;99456.00;;;-0.21;81.82
59315;BME280;46521;50.160;20.802;2023-04-07T03:32:42;99480.76;;;-0.15;81.58
59315;BME280;46521;50.160;20.802;2023-04-07T03:42:45;99479.49;;;-0.10;81.50
59315;BME280;46521;50.160;20.802;2023-04-07T03:52:46;99481.98;;;-0.08;81.74
59315;BME280;46521;50.160;20.802;2023-04-07T04:02:48;99472.66;;;-0.11;81.64
59315;BME280;46521;50.160;20.802;2023-04-07T04:12:49;99470.36;;;-0.15;81.61
59315;BME280;46521;50.160;20.802;2023-04-07T04:22:51;99471.08;;;-0.13;81.74
59315;BME280;46521;50.160;20.802;2023-04-07T04:32:52;99464.95;;;-0.12;82.23
59315;BME280;46521;50.160;20.802;2023-04-07T04:42:55;99475.14;;;-0.09;81.94
59315;BME280;46521;50.160;20.802;2023-04-07T04:52:56;99477.53;;;-0.06;82.14
59315;BME280;46521;50.160;20.802;2023-04-07T05:02:58;99471.38;;;-0.05;82.01
59315;BME280;46521;50.160;20.802;2023-04-07T05:12:59;99478.05;;;-0.01;81.92
59315;BME280;46521;50.160;20.802;2023-04-07T05:23:01;99483.86;;;0.03;81.99
59315;BME280;46521;50.160;20.802;2023-04-07T05:33:03;99484.68;;;0.03;82.34
59315;BME280;46521;50.160;20.802;2023-04-07T05:43:05;99486.15;;;0.07;82.03
59315;BME280;46521;50.160;20.802;2023-04-07T05:53:06;99475.75;;;0.07;82.30
59315;BME280;46521;50.160;20.802;2023-04-07T06:03:08;99479.81;;;0.11;82.18
59315;BME280;46521;50.160;20.802;2023-04-07T06:13:09;99483.84;;;0.15;82.53
59315;BME280;46521;50.160;20.802;2023-04-07T06:23:11;99465.11;;;0.23;82.22
59315;BME280;46521;50.160;20.802;2023-04-07T06:33:12;99481.75;;;0.33;82.14
59315;BME280;46521;50.160;20.802;2023-04-07T06:43:14;99501.28;;;0.39;82.34
59315;BME280;46521;50.160;20.802;2023-04-07T06:53:16;99510.55;;;0.43;82.28
59315;BME280;46521;50.160;20.802;2023-04-07T07:03:17;99512.84;;;0.48;82.12
59315;BME280;46521;50.160;20.802;2023-04-07T07:13:21;99511.05;;;0.61;82.06
59315;BME280;46521;50.160;20.802;2023-04-07T07:23:23;99502.14;;;0.77;82.16
59315;BME280;46521;50.160;20.802;2023-04-07T07:33:25;99516.78;;;0.90;81.82
59315;BME280;46521;50.160;20.802;2023-04-07T07:43:26;99502.39;;;0.98;81.88
59315;BME280;46521;50.160;20.802;2023-04-07T07:53:28;99498.80;;;1.12;82.19
59315;BME280;46521;50.160;20.802;2023-04-07T08:03:29;99489.98;;;1.25;82.10
59315;BME280;46521;50.160;20.802;2023-04-07T08:13:30;99486.33;;;1.39;82.26
59315;BME280;46521;50.160;20.802;2023-04-07T08:23:32;99494.89;;;1.41;81.69
59315;BME280;46521;50.160;20.802;2023-04-07T08:33:33;99491.27;;;1.55;82.28
59315;BME280;46521;50.160;20.802;2023-04-07T08:43:35;99512.48;;;1.62;82.05
59315;BME280;46521;50.160;20.802;2023-04-07T08:53:49;99519.59;;;1.60;81.96
59315;BME280;46521;50.160;20.802;2023-04-07T09:03:51;99528.46;;;1.57;82.07
59315;BME280;46521;50.160;20.802;2023-04-07T09:13:54;99526.41;;;1.50;82.00
59315;BME280;46521;50.160;20.802;2023-04-07T09:23:56;99525.08;;;1.44;82.37
59315;BME280;46521;50.160;20.802;2023-04-07T09:33:57;99497.75;;;1.50;82.10
59315;BME280;46521;50.160;20.802;2023-04-07T09:44:00;99511.03;;;1.58;81.92
59315;BME280;46521;50.160;20.802;2023-04-07T09:54:01;99518.77;;;1.71;82.01
59315;BME280;46521;50.160;20.802;2023-04-07T10:04:03;99522.00;;;1.74;82.31
59315;BME280;46521;50.160;20.802;2023-04-07T10:14:05;99512.16;;;1.78;82.13
59315;BME280;46521;50.160;20.802;2023-04-07T10:44:57;99530.66;;;1.86;82.53
59315;BME280;46521;50.160;20.802;2023-04-07T10:55:27;99516.45;;;1.90;82.44
59315;BME280;46521;50.160;20.802;2023-04-07T11:05:29;99514.80;;;2.01;82.91
59315;BME280;46521;50.160;20.802;2023-04-07T11:15:32;99530.09;;;2.05;83.11
59315;BME280;46521;50.160;20.802;2023-04-07T11:25:35;99531.54;;;2.21;82.85
59315;BME280;46521;50.160;20.802;2023-04-07T11:35:37;99532.63;;;2.29;82.63
59315;BME280;46521;50.160;20.802;2023-04-07T11:45:39;99536.17;;;2.28;82.43
59315;BME280;46521;50.160;20.802;2023-04-07T11:55:40;99529.08;;;2.30;82.50
59315;BME280;46521;50.160;20.802;2023-04-07T12:05:43;99535.70;;;2.34;83.18
59315;BME280;46521;50.160;20.802;2023-04-07T12:15:45;99533.56;;;2.40;83.25
59315;BME280;46521;50.160;20.802;2023-04-07T12:25:46;99536.91;;;2.42;82.74
59315;BME280;46521;50.160;20.802;2023-04-07T12:35:48;99549.84;;;2.43;82.51
59315;BME280;46521;50.160;20.802;2023-04-07T12:45:49;99558.38;;;2.45;83.06
59315;BME280;46521;50.160;20.802;2023-04-07T12:55:51;99568.58;;;2.48;83.20
59315;BME280;46521;50.160;20.802;2023-04-07T13:05:52;99577.73;;;2.54;82.95
59315;BME280;46521;50.160;20.802;2023-04-07T13:15:55;99574.50;;;2.50;82.92
59315;BME280;46521;50.160;20.802;2023-04-07T13:25:57;99577.00;;;2.52;83.01
59315;BME280;46521;50.160;20.802;2023-04-07T13:35:58;99570.60;;;2.56;82.94
59315;BME280;46521;50.160;20.802;2023-04-07T13:46:00;99568.45;;;2.61;82.72
59315;BME280;46521;50.160;20.802;2023-04-07T13:56:01;99577.02;;;2.63;83.65
59315;BME280;46521;50.160;20.802;2023-04-07T14:06:03;99588.41;;;2.62;83.27
59315;BME280;46521;50.160;20.802;2023-04-07T14:16:05;99593.03;;;2.70;83.44
59315;BME280;46521;50.160;20.802;2023-04-07T14:26:11;99598.14;;;2.72;83.13
59315;BME280;46521;50.160;20.802;2023-04-07T14:36:13;99612.84;;;2.73;83.09
59315;BME280;46521;50.160;20.802;2023-04-07T14:46:16;99616.42;;;2.72;83.23
59315;BME280;46521;50.160;20.802;2023-04-07T14:56:18;99607.85;;;2.69;83.50
59315;BME280;46521;50.160;20.802;2023-04-07T15:06:21;99616.77;;;2.67;83.22
59315;BME280;46521;50.160;20.802;2023-04-07T15:16:23;99628.39;;;2.74;83.50
59315;BME280;46521;50.160;20.802;2023-04-07T15:26:25;99635.41;;;2.74;83.47
59315;BME280;46521;50.160;20.802;2023-04-07T15:36:26;99645.85;;;2.74;83.17
59315;BME280;46521;50.160;20.802;2023-04-07T15:46:28;99649.52;;;2.71;83.52
59315;BME280;46521;50.160;20.802;2023-04-07T15:56:31;99665.80;;;2.75;83.20
59315;BME280;46521;50.160;20.802;2023-04-07T16:06:33;99670.17;;;2.74;82.92
59315;BME280;46521;50.160;20.802;2023-04-07T16:16:34;99680.97;;;2.69;82.91
59315;BME280;46521;50.160;20.802;2023-04-07T16:26:36;99688.33;;;2.64;83.39
59315;BME280;46521;50.160;20.802;2023-04-07T16:36:38;99704.23;;;2.61;83.43
59315;BME280;46521;50.160;20.802;2023-04-07T16:46:40;99726.66;;;2.52;82.72
59315;BME280;46521;50.160;20.802;2023-04-07T16:56:41;99741.92;;;2.46;83.02
59315;BME280;46521;50.160;20.802;2023-04-07T17:06:43;99755.72;;;2.48;83.61
59315;BME280;46521;50.160;20.802;2023-04-07T17:16:44;99760.53;;;2.41;82.57
59315;BME280;46521;50.160;20.802;2023-04-07T17:26:46;99773.59;;;2.41;83.36
59315;BME280;46521;50.160;20.802;2023-04-07T17:36:48;99780.14;;;2.47;82.64
59315;BME280;46521;50.160;20.802;2023-04-07T17:46:49;99795.47;;;2.51;83.31
59315;BME280;46521;50.160;20.802;2023-04-07T17:56:51;99821.14;;;2.58;83.05
59315;BME280;46521;50.160;20.802;2023-04-07T18:06:52;99829.08;;;2.56;82.82
59315;BME280;46521;50.160;20.802;2023-04-07T18:16:54;99849.86;;;2.58;82.31
59315;BME280;46521;50.160;20.802;2023-04-07T18:26:56;99855.86;;;2.47;82.93
59315;BME280;46521;50.160;20.802;2023-04-07T18:36:58;99862.67;;;2.37;82.54
59315;BME280;46521;50.160;20.802;2023-04-07T18:46:59;99874.51;;;2.29;82.81
59315;BME280;46521;50.160;20.802;2023-04-07T18:57:01;99896.86;;;2.21;82.24
59315;BME280;46521;50.160;20.802;2023-04-07T19:07:02;99906.58;;;2.19;82.09
59315;BME280;46521;50.160;20.802;2023-04-07T19:17:04;99924.13;;;2.16;82.73
59315;BME280;46521;50.160;20.802;2023-04-07T19:27:07;99923.27;;;2.16;82.62
59315;BME280;46521;50.160;20.802;2023-04-07T19:37:09;99927.35;;;2.20;82.70
59315;BME280;46521;50.160;20.802;2023-04-07T19:47:10;99924.31;;;2.26;82.14
59315;BME280;46521;50.160;20.802;2023-04-07T19:57:12;99929.53;;;2.26;82.89
59315;BME280;46521;50.160;20.802;2023-04-07T20:07:15;99929.31;;;2.29;82.88
59315;BME280;46521;50.160;20.802;2023-04-07T20:17:17;99936.94;;;2.32;82.21
59315;BME280;46521;50.160;20.802;2023-04-07T20:27:18;99943.08;;;2.31;82.53
59315;BME280;46521;50.160;20.802;2023-04-07T20:37:21;99943.94;;;2.19;81.94
59315;BME280;46521;50.160;20.802;2023-04-07T20:47:23;99944.58;;;2.10;82.59
59315;BME280;46521;50.160;20.802;2023-04-07T20:57:24;99955.89;;;1.97;82.01
59315;BME280;46521;50.160;20.802;2023-04-07T21:07:26;99953.91;;;1.88;81.97
59315;BME280;46521;50.160;20.802;2023-04-07T21:17:28;99952.02;;;1.77;82.39
59315;BME280;46521;50.160;20.802;2023-04-07T21:27:29;99958.48;;;1.72;82.39
59315;BME280;46521;50.160;20.802;2023-04-07T21:37:31;99961.70;;;1.62;81.78
59315;BME280;46521;50.160;20.802;2023-04-07T21:47:33;99956.69;;;1.59;82.11
59315;BME280;46521;50.160;20.802;2023-04-07T21:57:34;99958.58;;;1.57;82.04
59315;BME280;46521;50.160;20.802;2023-04-07T22:07:36;99963.07;;;1.55;81.88
59315;BME280;46521;50.160;20.802;2023-04-07T22:17:38;99965.88;;;1.52;81.96
59315;BME280;46521;50.160;20.802;2023-04-07T22:27:40;99968.79;;;1.48;82.11
59315;BME280;46521;50.160;20.802;2023-04-07T22:37:41;99968.55;;;1.38;82.24
59315;BME280;46521;50.160;20.802;2023-04-07T22:47:42;99977.81;;;1.29;82.08
59315;BME280;46521;50.160;20.802;2023-04-07T22:57:44;99985.94;;;1.24;81.96
59315;BME280;46521;50.160;20.802;2023-04-07T23:07:46;99984.13;;;1.12;81.51
59315;BME280;46521;50.160;20.802;2023-04-07T23:17:47;99983.30;;;1.12;82.31
59315;BME280;46521;50.160;20.802;2023-04-07T23:27:49;99987.72;;;1.24;82.41
59315;BME280;46521;50.160;20.802;2023-04-07T23:37:50;99984.38;;;1.35;82.54
59315;BME280;46521;50.160;20.802;2023-04-07T23:47:52;99985.86;;;1.39;82.34
